sensor_id;sensor_type;location;lat;lon;timestamp;P1;durP1;ratioP1;P2;durP2;ratioP2
3597;SDS011;1813;52.016;8.714;2023-09-12T00:01:50;5.87;;;5.37;;
3597;SDS011;1813;52.016;8.714;2023-09-12T00:04:24;6.53;;;5.13;;
3597;SDS011;1813;52.016;8.714;2023-09-12T00:06:57;10.63;;;5.53;;
3597;SDS011;1813;52.016;8.714;2023-09-12T00:09:31;8.43;;;5.73;;
3597;SDS011;1813;52.016;8.714;2023-09-12T00:12:05;10.90;;;6.07;;
3597;SDS011;1813;52.016;8.714;2023-09-12T00:14:42;7.07;;;5.20;;
3597;SDS011;1813;52.016;8.714;2023-09-12T00:17:16;6.00;;;5.50;;
3597;SDS011;1813;52.016;8.714;2023-09-12T00:19:51;7.50;;;6.13;;
3597;SDS011;1813;52.016;8.714;2023-09-12T00:22:25;5.83;;;5.17;;
3597;SDS011;1813;52.016;8.714;2023-09-12T00:24:59;6.10;;;5.50;;
3597;SDS011;1813;52.016;8.714;2023-09-12T00:27:32;7.07;;;5.80;;
3597;SDS011;1813;52.016;8.714;2023-09-12T00:30:10;5.30;;;4.90;;
3597;SDS011;1813;52.016;8.714;2023-09-12T00:32:45;14.57;;;5.67;;
3597;SDS011;1813;52.016;8.714;2023-09-12T00:35:19;7.33;;;5.50;;
3597;SDS011;1813;52.016;8.714;2023-09-12T00:37:53;5.50;;;4.90;;
3597;SDS011;1813;52.016;8.714;2023-09-12T00:40:26;10.77;;;5.00;;
3597;SDS011;1813;52.016;8.714;2023-09-12T00:43:00;6.50;;;5.90;;
3597;SDS011;1813;52.016;8.714;2023-09-12T00:45:37;5.97;;;5.53;;
3597;SDS011;1813;52.016;8.714;2023-09-12T00:48:10;5.97;;;5.33;;
3597;SDS011;1813;52.016;8.714;2023-09-12T00:50:47;6.13;;;5.60;;
3597;SDS011;1813;52.016;8.714;2023-09-12T00:53:23;8.07;;;5.70;;
3597;SDS011;1813;52.016;8.714;2023-09-12T00:55:57;11.30;;;6.40;;
3597;SDS011;1813;52.016;8.714;2023-09-12T00:58:32;13.87;;;6.70;;
3597;SDS011;1813;52.016;8.714;2023-09-12T01:01:09;7.43;;;6.37;;
3597;SDS011;1813;52.016;8.714;2023-09-12T01:03:43;8.33;;;5.60;;
3597;SDS011;1813;52.016;8.714;2023-09-12T01:06:17;8.70;;;5.73;;
3597;SDS011;1813;52.016;8.714;2023-09-12T01:08:56;9.83;;;5.87;;
3597;SDS011;1813;52.016;8.714;2023-09-12T01:11:30;11.53;;;5.73;;
3597;SDS011;1813;52.016;8.714;2023-09-12T01:14:04;7.77;;;5.70;;
3597;SDS011;1813;52.016;8.714;2023-09-12T01:16:41;12.57;;;6.40;;
3597;SDS011;1813;52.016;8.714;2023-09-12T01:19:15;9.00;;;6.13;;
3597;SDS011;1813;52.016;8.714;2023-09-12T01:21:57;9.77;;;6.27;;
3597;SDS011;1813;52.016;8.714;2023-09-12T01:28:01;6.47;;;4.97;;
3597;SDS011;1813;52.016;8.714;2023-09-12T01:30:40;5.93;;;4.10;;
3597;SDS011;1813;52.016;8.714;2023-09-12T01:33:16;4.53;;;4.13;;
3597;SDS011;1813;52.016;8.714;2023-09-12T01:35:50;4.27;;;3.97;;
3597;SDS011;1813;52.016;8.714;2023-09-12T01:38:24;4.30;;;4.00;;
3597;SDS011;1813;52.016;8.714;2023-09-12T01:40:59;7.60;;;4.80;;
3597;SDS011;1813;52.016;8.714;2023-09-12T01:43:35;5.77;;;4.87;;
3597;SDS011;1813;52.016;8.714;2023-09-12T01:46:11;5.37;;;4.90;;
3597;SDS011;1813;52.016;8.714;2023-09-12T01:48:46;6.73;;;5.10;;
3597;SDS011;1813;52.016;8.714;2023-09-12T01:51:22;8.03;;;5.30;;
3597;SDS011;1813;52.016;8.714;2023-09-12T01:53:58;8.30;;;5.60;;
3597;SDS011;1813;52.016;8.714;2023-09-12T01:56:33;7.97;;;6.30;;
3597;SDS011;1813;52.016;8.714;2023-09-12T01:59:10;8.60;;;7.10;;
3597;SDS011;1813;52.016;8.714;2023-09-12T02:01:45;12.40;;;7.50;;
3597;SDS011;1813;52.016;8.714;2023-09-12T02:04:18;10.53;;;8.20;;
3597;SDS011;1813;52.016;8.714;2023-09-12T02:06:52;15.73;;;9.17;;
3597;SDS011;1813;52.016;8.714;2023-09-12T02:09:28;14.23;;;9.53;;
3597;SDS011;1813;52.016;8.714;2023-09-12T02:12:03;9.37;;;8.43;;
3597;SDS011;1813;52.016;8.714;2023-09-12T02:14:40;12.10;;;10.10;;
3597;SDS011;1813;52.016;8.714;2023-09-12T02:17:13;15.90;;;9.83;;
3597;SDS011;1813;52.016;8.714;2023-09-12T02:19:47;9.53;;;8.53;;
3597;SDS011;1813;52.016;8.714;2023-09-12T02:22:21;14.30;;;9.10;;
3597;SDS011;1813;52.016;8.714;2023-09-12T02:24:56;10.90;;;9.60;;
3597;SDS011;1813;52.016;8.714;2023-09-12T02:27:30;16.80;;;10.30;;
3597;SDS011;1813;52.016;8.714;2023-09-12T02:30:07;13.47;;;9.83;;
3597;SDS011;1813;52.016;8.714;2023-09-12T02:32:41;15.80;;;11.07;;
3597;SDS011;1813;52.016;8.714;2023-09-12T02:35:15;20.03;;;14.60;;
3597;SDS011;1813;52.016;8.714;2023-09-12T02:37:49;18.20;;;15.43;;
3597;SDS011;1813;52.016;8.714;2023-09-12T02:40:23;15.97;;;13.30;;
3597;SDS011;1813;52.016;8.714;2023-09-12T02:42:57;20.87;;;14.60;;
3597;SDS011;1813;52.016;8.714;2023-09-12T02:45:33;20.93;;;15.60;;
3597;SDS011;1813;52.016;8.714;2023-09-12T02:48:07;25.30;;;16.40;;
3597;SDS011;1813;52.016;8.714;2023-09-12T02:50:41;26.63;;;20.47;;
3597;SDS011;1813;52.016;8.714;2023-09-12T02:53:15;31.20;;;21.83;;
3597;SDS011;1813;52.016;8.714;2023-09-12T02:55:49;33.37;;;23.27;;
3597;SDS011;1813;52.016;8.714;2023-09-12T02:58:25;37.73;;;22.63;;
3597;SDS011;1813;52.016;8.714;2023-09-12T03:01:01;31.73;;;22.83;;
3597;SDS011;1813;52.016;8.714;2023-09-12T03:03:36;31.10;;;21.57;;
3597;SDS011;1813;52.016;8.714;2023-09-12T03:06:10;33.50;;;22.97;;
3597;SDS011;1813;52.016;8.714;2023-09-12T03:08:44;32.03;;;22.70;;
3597;SDS011;1813;52.016;8.714;2023-09-12T03:11:18;31.93;;;23.03;;
3597;SDS011;1813;52.016;8.714;2023-09-12T03:13:52;34.23;;;24.20;;
3597;SDS011;1813;52.016;8.714;2023-09-12T03:16:28;33.33;;;23.87;;
3597;SDS011;1813;52.016;8.714;2023-09-12T03:19:03;33.67;;;24.93;;
3597;SDS011;1813;52.016;8.714;2023-09-12T03:21:37;32.97;;;24.83;;
3597;SDS011;1813;52.016;8.714;2023-09-12T03:24:11;35.70;;;24.00;;
3597;SDS011;1813;52.016;8.714;2023-09-12T03:26:48;35.77;;;26.60;;
3597;SDS011;1813;52.016;8.714;2023-09-12T03:29:22;35.20;;;24.93;;
3597;SDS011;1813;52.016;8.714;2023-09-12T03:31:59;35.47;;;25.77;;
3597;SDS011;1813;52.016;8.714;2023-09-12T03:34:33;31.83;;;25.87;;
3597;SDS011;1813;52.016;8.714;2023-09-12T03:37:07;38.23;;;25.53;;
3597;SDS011;1813;52.016;8.714;2023-09-12T03:39:41;31.70;;;24.07;;
3597;SDS011;1813;52.016;8.714;2023-09-12T03:42:14;30.30;;;24.10;;
3597;SDS011;1813;52.016;8.714;2023-09-12T03:44:48;32.13;;;23.10;;
3597;SDS011;1813;52.016;8.714;2023-09-12T03:47:25;31.50;;;22.60;;
3597;SDS011;1813;52.016;8.714;2023-09-12T03:49:58;31.03;;;23.40;;
3597;SDS011;1813;52.016;8.714;2023-09-12T03:52:32;28.37;;;23.57;;
3597;SDS011;1813;52.016;8.714;2023-09-12T03:55:06;30.77;;;23.87;;
3597;SDS011;1813;52.016;8.714;2023-09-12T03:57:41;30.00;;;22.80;;
3597;SDS011;1813;52.016;8.714;2023-09-12T04:00:15;33.60;;;24.23;;
3597;SDS011;1813;52.016;8.714;2023-09-12T04:02:54;32.40;;;23.03;;
3597;SDS011;1813;52.016;8.714;2023-09-12T04:05:28;32.97;;;24.90;;
3597;SDS011;1813;52.016;8.714;2023-09-12T04:08:02;32.30;;;22.60;;
3597;SDS011;1813;52.016;8.714;2023-09-12T04:10:36;35.83;;;24.07;;
3597;SDS011;1813;52.016;8.714;2023-09-12T04:13:10;30.57;;;23.03;;
3597;SDS011;1813;52.016;8.714;2023-09-12T04:15:44;37.87;;;22.83;;
3597;SDS011;1813;52.016;8.714;2023-09-12T04:18:20;25.40;;;19.50;;
3597;SDS011;1813;52.016;8.714;2023-09-12T04:20:56;24.03;;;18.90;;
3597;SDS011;1813;52.016;8.714;2023-09-12T04:23:30;23.20;;;17.90;;
3597;SDS011;1813;52.016;8.714;2023-09-12T04:26:04;21.17;;;17.60;;
3597;SDS011;1813;52.016;8.714;2023-09-12T04:28:37;26.03;;;18.00;;
3597;SDS011;1813;52.016;8.714;2023-09-12T04:31:11;28.70;;;18.33;;
3597;SDS011;1813;52.016;8.714;2023-09-12T04:33:50;25.60;;;20.33;;
3597;SDS011;1813;52.016;8.714;2023-09-12T04:36:23;26.97;;;20.87;;
3597;SDS011;1813;52.016;8.714;2023-09-12T04:38:57;28.13;;;19.57;;
3597;SDS011;1813;52.016;8.714;2023-09-12T04:41:31;26.60;;;18.77;;
3597;SDS011;1813;52.016;8.714;2023-09-12T04:44:05;23.87;;;18.33;;
3597;SDS011;1813;52.016;8.714;2023-09-12T04:46:39;26.13;;;20.07;;
3597;SDS011;1813;52.016;8.714;2023-09-12T04:49:15;26.37;;;19.17;;
3597;SDS011;1813;52.016;8.714;2023-09-12T04:51:49;26.53;;;19.30;;
3597;SDS011;1813;52.016;8.714;2023-09-12T04:54:23;23.90;;;18.80;;
3597;SDS011;1813;52.016;8.714;2023-09-12T04:56:57;21.40;;;17.40;;
3597;SDS011;1813;52.016;8.714;2023-09-12T04:59:31;24.87;;;18.43;;
3597;SDS011;1813;52.016;8.714;2023-09-12T05:02:05;24.63;;;19.27;;
3597;SDS011;1813;52.016;8.714;2023-09-12T05:04:41;26.00;;;18.30;;
3597;SDS011;1813;52.016;8.714;2023-09-12T05:07:15;29.40;;;18.97;;
3597;SDS011;1813;52.016;8.714;2023-09-12T05:09:49;27.23;;;18.33;;
3597;SDS011;1813;52.016;8.714;2023-09-12T05:12:23;30.30;;;17.40;;
3597;SDS011;1813;52.016;8.714;2023-09-12T05:14:57;25.07;;;16.90;;
3597;SDS011;1813;52.016;8.714;2023-09-12T05:17:31;21.67;;;14.20;;
3597;SDS011;1813;52.016;8.714;2023-09-12T05:20:08;28.00;;;15.80;;
3597;SDS011;1813;52.016;8.714;2023-09-12T05:22:43;29.63;;;17.27;;
3597;SDS011;1813;52.016;8.714;2023-09-12T05:25:16;16.87;;;12.70;;
3597;SDS011;1813;52.016;8.714;2023-09-12T05:27:54;24.97;;;13.40;;
3597;SDS011;1813;52.016;8.714;2023-09-12T05:30:28;24.50;;;14.90;;
3597;SDS011;1813;52.016;8.714;2023-09-12T05:33:02;21.33;;;12.50;;
3597;SDS011;1813;52.016;8.714;2023-09-12T05:35:39;19.30;;;13.07;;
3597;SDS011;1813;52.016;8.714;2023-09-12T05:38:15;20.40;;;12.87;;
3597;SDS011;1813;52.016;8.714;2023-09-12T05:40:48;25.50;;;13.20;;
3597;SDS011;1813;52.016;8.714;2023-09-12T05:43:23;24.03;;;12.10;;
3597;SDS011;1813;52.016;8.714;2023-09-12T05:45:57;18.83;;;12.97;;
3597;SDS011;1813;52.016;8.714;2023-09-12T05:48:31;18.93;;;13.00;;
3597;SDS011;1813;52.016;8.714;2023-09-12T05:51:08;18.20;;;13.00;;
3597;SDS011;1813;52.016;8.714;2023-09-12T05:53:42;21.90;;;13.60;;
3597;SDS011;1813;52.016;8.714;2023-09-12T05:56:17;23.20;;;12.80;;
3597;SDS011;1813;52.016;8.714;2023-09-12T05:58:51;24.77;;;12.20;;
3597;SDS011;1813;52.016;8.714;2023-09-12T06:01:25;21.13;;;13.67;;
3597;SDS011;1813;52.016;8.714;2023-09-12T06:03:59;21.13;;;13.27;;
3597;SDS011;1813;52.016;8.714;2023-09-12T06:06:35;20.43;;;13.73;;
3597;SDS011;1813;52.016;8.714;2023-09-12T06:09:09;27.40;;;14.13;;
3597;SDS011;1813;52.016;8.714;2023-09-12T06:11:43;23.40;;;14.10;;
3597;SDS011;1813;52.016;8.714;2023-09-12T06:14:18;17.90;;;13.70;;
3597;SDS011;1813;52.016;8.714;2023-09-12T06:16:52;16.67;;;12.37;;
3597;SDS011;1813;52.016;8.714;2023-09-12T06:19:25;17.63;;;11.70;;
3597;SDS011;1813;52.016;8.714;2023-09-12T06:22:02;19.40;;;12.43;;
3597;SDS011;1813;52.016;8.714;2023-09-12T06:24:37;21.77;;;14.47;;
3597;SDS011;1813;52.016;8.714;2023-09-12T06:27:11;18.83;;;13.77;;
3597;SDS011;1813;52.016;8.714;2023-09-12T06:29:49;32.83;;;13.07;;
3597;SDS011;1813;52.016;8.714;2023-09-12T06:32:22;17.67;;;12.43;;
3597;SDS011;1813;52.016;8.714;2023-09-12T06:34:56;19.90;;;12.60;;
3597;SDS011;1813;52.016;8.714;2023-09-12T06:37:33;27.87;;;13.83;;
3597;SDS011;1813;52.016;8.714;2023-09-12T06:40:07;17.47;;;12.23;;
3597;SDS011;1813;52.016;8.714;2023-09-12T06:42:42;19.77;;;12.73;;
3597;SDS011;1813;52.016;8.714;2023-09-12T06:45:16;20.90;;;12.70;;
3597;SDS011;1813;52.016;8.714;2023-09-12T06:47:50;23.53;;;13.40;;
3597;SDS011;1813;52.016;8.714;2023-09-12T06:50:23;18.80;;;12.87;;
3597;SDS011;1813;52.016;8.714;2023-09-12T06:53:00;14.40;;;11.70;;
3597;SDS011;1813;52.016;8.714;2023-09-12T06:55:34;24.93;;;12.60;;
3597;SDS011;1813;52.016;8.714;2023-09-12T06:58:07;16.13;;;11.67;;
3597;SDS011;1813;52.016;8.714;2023-09-12T07:00:41;16.33;;;12.77;;
3597;SDS011;1813;52.016;8.714;2023-09-12T07:03:15;21.40;;;12.73;;
3597;SDS011;1813;52.016;8.714;2023-09-12T07:05:49;18.10;;;12.90;;
3597;SDS011;1813;52.016;8.714;2023-09-12T07:08:25;19.87;;;13.97;;
3597;SDS011;1813;52.016;8.714;2023-09-12T07:10:59;21.97;;;14.30;;
3597;SDS011;1813;52.016;8.714;2023-09-12T07:13:36;21.97;;;15.03;;
3597;SDS011;1813;52.016;8.714;2023-09-12T07:16:09;23.30;;;16.07;;
3597;SDS011;1813;52.016;8.714;2023-09-12T07:18:43;18.30;;;14.17;;
3597;SDS011;1813;52.016;8.714;2023-09-12T07:21:17;18.70;;;13.73;;
3597;SDS011;1813;52.016;8.714;2023-09-12T07:23:54;18.80;;;14.57;;
3597;SDS011;1813;52.016;8.714;2023-09-12T07:26:27;20.63;;;14.33;;
3597;SDS011;1813;52.016;8.714;2023-09-12T07:29:01;17.80;;;13.17;;
3597;SDS011;1813;52.016;8.714;2023-09-12T07:31:36;20.80;;;14.20;;
3597;SDS011;1813;52.016;8.714;2023-09-12T07:34:09;24.37;;;14.50;;
3597;SDS011;1813;52.016;8.714;2023-09-12T07:36:45;17.93;;;13.80;;
3597;SDS011;1813;52.016;8.714;2023-09-12T07:39:21;21.63;;;13.30;;
3597;SDS011;1813;52.016;8.714;2023-09-12T07:41:55;18.60;;;12.20;;
3597;SDS011;1813;52.016;8.714;2023-09-12T07:44:29;14.00;;;9.53;;
3597;SDS011;1813;52.016;8.714;2023-09-12T07:47:03;12.97;;;9.03;;
3597;SDS011;1813;52.016;8.714;2023-09-12T07:49:37;13.80;;;9.23;;
3597;SDS011;1813;52.016;8.714;2023-09-12T07:52:10;13.77;;;9.20;;
3597;SDS011;1813;52.016;8.714;2023-09-12T07:54:48;18.00;;;9.80;;
3597;SDS011;1813;52.016;8.714;2023-09-12T07:57:27;13.30;;;10.33;;
3597;SDS011;1813;52.016;8.714;2023-09-12T08:00:01;16.57;;;11.10;;
3597;SDS011;1813;52.016;8.714;2023-09-12T08:02:43;12.57;;;10.00;;
3597;SDS011;1813;52.016;8.714;2023-09-12T08:05:17;14.87;;;10.17;;
3597;SDS011;1813;52.016;8.714;2023-09-12T08:07:51;10.83;;;8.77;;
3597;SDS011;1813;52.016;8.714;2023-09-12T08:10:28;18.03;;;9.27;;
3597;SDS011;1813;52.016;8.714;2023-09-12T08:13:03;12.47;;;10.20;;
3597;SDS011;1813;52.016;8.714;2023-09-12T08:15:37;16.10;;;10.20;;
3597;SDS011;1813;52.016;8.714;2023-09-12T08:18:11;11.63;;;8.20;;
3597;SDS011;1813;52.016;8.714;2023-09-12T08:20:45;10.33;;;9.00;;
3597;SDS011;1813;52.016;8.714;2023-09-12T08:23:19;10.87;;;8.90;;
3597;SDS011;1813;52.016;8.714;2023-09-12T08:25:55;13.30;;;9.67;;
3597;SDS011;1813;52.016;8.714;2023-09-12T08:28:29;10.73;;;9.40;;
3597;SDS011;1813;52.016;8.714;2023-09-12T08:31:03;11.17;;;8.83;;
3597;SDS011;1813;52.016;8.714;2023-09-12T08:33:37;11.93;;;8.97;;
3597;SDS011;1813;52.016;8.714;2023-09-12T08:36:10;9.50;;;6.53;;
3597;SDS011;1813;52.016;8.714;2023-09-12T08:38:44;8.50;;;6.17;;
3597;SDS011;1813;52.016;8.714;2023-09-12T08:41:20;10.17;;;6.50;;
3597;SDS011;1813;52.016;8.714;2023-09-12T08:43:54;8.50;;;5.80;;
3597;SDS011;1813;52.016;8.714;2023-09-12T08:46:29;7.80;;;6.20;;
3597;SDS011;1813;52.016;8.714;2023-09-12T08:49:03;8.90;;;6.40;;
3597;SDS011;1813;52.016;8.714;2023-09-12T08:51:39;6.50;;;5.80;;
3597;SDS011;1813;52.016;8.714;2023-09-12T08:54:14;6.63;;;5.30;;
3597;SDS011;1813;52.016;8.714;2023-09-12T08:56:51;7.60;;;5.70;;
3597;SDS011;1813;52.016;8.714;2023-09-12T08:59:26;11.77;;;6.33;;
3597;SDS011;1813;52.016;8.714;2023-09-12T09:02:00;13.43;;;6.70;;
3597;SDS011;1813;52.016;8.714;2023-09-12T09:04:39;9.83;;;6.63;;
3597;SDS011;1813;52.016;8.714;2023-09-12T09:07:14;12.93;;;7.00;;
3597;SDS011;1813;52.016;8.714;2023-09-12T09:09:50;10.93;;;7.23;;
3597;SDS011;1813;52.016;8.714;2023-09-12T09:12:27;12.90;;;8.20;;
3597;SDS011;1813;52.016;8.714;2023-09-12T09:18:01;11.10;;;7.50;;
3597;SDS011;1813;52.016;8.714;2023-09-12T09:20:36;11.07;;;6.80;;
3597;SDS011;1813;52.016;8.714;2023-09-12T09:23:11;13.63;;;8.10;;
3597;SDS011;1813;52.016;8.714;2023-09-12T09:25:51;12.90;;;8.20;;
3597;SDS011;1813;52.016;8.714;2023-09-12T09:28:28;14.80;;;9.67;;
3597;SDS011;1813;52.016;8.714;2023-09-12T09:31:02;14.47;;;9.20;;
3597;SDS011;1813;52.016;8.714;2023-09-12T09:33:38;12.93;;;8.83;;
3597;SDS011;1813;52.016;8.714;2023-09-12T09:36:19;14.57;;;8.60;;
3597;SDS011;1813;52.016;8.714;2023-09-12T09:38:53;11.90;;;8.70;;
3597;SDS011;1813;52.016;8.714;2023-09-12T09:41:29;13.17;;;9.17;;
3597;SDS011;1813;52.016;8.714;2023-09-12T09:44:07;16.77;;;9.33;;
3597;SDS011;1813;52.016;8.714;2023-09-12T09:46:43;13.37;;;8.70;;
3597;SDS011;1813;52.016;8.714;2023-09-12T09:49:19;13.70;;;9.10;;
3597;SDS011;1813;52.016;8.714;2023-09-12T09:51:54;15.50;;;9.10;;
3597;SDS011;1813;52.016;8.714;2023-09-12T09:54:29;20.70;;;10.57;;
3597;SDS011;1813;52.016;8.714;2023-09-12T09:57:03;21.13;;;11.67;;
3597;SDS011;1813;52.016;8.714;2023-09-12T09:59:40;14.30;;;9.20;;
3597;SDS011;1813;52.016;8.714;2023-09-12T10:02:16;14.10;;;9.20;;
3597;SDS011;1813;52.016;8.714;2023-09-12T10:04:53;17.80;;;9.70;;
3597;SDS011;1813;52.016;8.714;2023-09-12T10:07:29;12.80;;;8.70;;
3597;SDS011;1813;52.016;8.714;2023-09-12T10:10:06;12.73;;;9.87;;
3597;SDS011;1813;52.016;8.714;2023-09-12T10:12:41;13.47;;;10.03;;
3597;SDS011;1813;52.016;8.714;2023-09-12T10:15:23;16.63;;;10.20;;
3597;SDS011;1813;52.016;8.714;2023-09-12T10:18:02;15.23;;;10.17;;
3597;SDS011;1813;52.016;8.714;2023-09-12T10:20:42;16.13;;;9.90;;
3597;SDS011;1813;52.016;8.714;2023-09-12T10:23:25;14.30;;;8.80;;
3597;SDS011;1813;52.016;8.714;2023-09-12T10:26:07;19.97;;;11.17;;
3597;SDS011;1813;52.016;8.714;2023-09-12T10:28:43;18.90;;;11.20;;
3597;SDS011;1813;52.016;8.714;2023-09-12T10:31:21;15.57;;;9.80;;
3597;SDS011;1813;52.016;8.714;2023-09-12T10:33:57;15.47;;;9.87;;
3597;SDS011;1813;52.016;8.714;2023-09-12T10:36:32;12.53;;;9.63;;
3597;SDS011;1813;52.016;8.714;2023-09-12T10:39:07;17.40;;;10.33;;
3597;SDS011;1813;52.016;8.714;2023-09-12T10:41:42;16.53;;;9.70;;
3597;SDS011;1813;52.016;8.714;2023-09-12T10:44:16;16.03;;;10.40;;
3597;SDS011;1813;52.016;8.714;2023-09-12T10:46:54;15.27;;;10.17;;
3597;SDS011;1813;52.016;8.714;2023-09-12T10:49:28;24.80;;;11.00;;
3597;SDS011;1813;52.016;8.714;2023-09-12T10:52:04;17.60;;;10.37;;
3597;SDS011;1813;52.016;8.714;2023-09-12T10:54:39;11.73;;;8.30;;
3597;SDS011;1813;52.016;8.714;2023-09-12T10:57:13;9.20;;;7.17;;
3597;SDS011;1813;52.016;8.714;2023-09-12T11:02:51;10.67;;;7.13;;
3597;SDS011;1813;52.016;8.714;2023-09-12T11:05:37;13.07;;;7.47;;
3597;SDS011;1813;52.016;8.714;2023-09-12T11:08:25;9.00;;;7.43;;
3597;SDS011;1813;52.016;8.714;2023-09-12T11:14:02;8.10;;;6.10;;
3597;SDS011;1813;52.016;8.714;2023-09-12T11:16:36;6.30;;;5.70;;
3597;SDS011;1813;52.016;8.714;2023-09-12T11:19:17;9.83;;;5.37;;
3597;SDS011;1813;52.016;8.714;2023-09-12T11:21:53;7.00;;;5.00;;
3597;SDS011;1813;52.016;8.714;2023-09-12T11:24:27;7.70;;;5.40;;
3597;SDS011;1813;52.016;8.714;2023-09-12T11:27:01;7.33;;;5.50;;
3597;SDS011;1813;52.016;8.714;2023-09-12T11:29:38;9.53;;;5.50;;
3597;SDS011;1813;52.016;8.714;2023-09-12T11:32:24;6.60;;;6.00;;
3597;SDS011;1813;52.016;8.714;2023-09-12T11:35:07;10.93;;;7.07;;
3597;SDS011;1813;52.016;8.714;2023-09-12T11:37:47;9.37;;;7.53;;
3597;SDS011;1813;52.016;8.714;2023-09-12T11:40:23;11.07;;;7.33;;
3597;SDS011;1813;52.016;8.714;2023-09-12T11:42:58;8.80;;;7.00;;
3597;SDS011;1813;52.016;8.714;2023-09-12T11:45:32;10.50;;;6.93;;
3597;SDS011;1813;52.016;8.714;2023-09-12T11:48:06;10.47;;;7.10;;
3597;SDS011;1813;52.016;8.714;2023-09-12T11:50:42;8.00;;;6.40;;
3597;SDS011;1813;52.016;8.714;2023-09-12T11:53:23;12.20;;;6.50;;
3597;SDS011;1813;52.016;8.714;2023-09-12T11:56:00;8.63;;;6.20;;
3597;SDS011;1813;52.016;8.714;2023-09-12T11:58:34;7.90;;;5.90;;
3597;SDS011;1813;52.016;8.714;2023-09-12T12:01:08;9.33;;;5.50;;
3597;SDS011;1813;52.016;8.714;2023-09-12T12:03:45;5.80;;;5.00;;
3597;SDS011;1813;52.016;8.714;2023-09-12T12:06:25;5.90;;;4.80;;
3597;SDS011;1813;52.016;8.714;2023-09-12T12:09:00;5.47;;;4.67;;
3597;SDS011;1813;52.016;8.714;2023-09-12T12:11:35;6.93;;;4.30;;
3597;SDS011;1813;52.016;8.714;2023-09-12T12:14:10;6.17;;;4.10;;
3597;SDS011;1813;52.016;8.714;2023-09-12T12:16:46;3.53;;;3.20;;
3597;SDS011;1813;52.016;8.714;2023-09-12T12:19:20;3.60;;;3.30;;
3597;SDS011;1813;52.016;8.714;2023-09-12T12:21:56;3.00;;;2.80;;
3597;SDS011;1813;52.016;8.714;2023-09-12T12:24:36;3.30;;;3.10;;
3597;SDS011;1813;52.016;8.714;2023-09-12T12:27:10;3.37;;;3.10;;
3597;SDS011;1813;52.016;8.714;2023-09-12T12:29:44;3.43;;;3.00;;
3597;SDS011;1813;52.016;8.714;2023-09-12T12:32:18;3.13;;;2.80;;
3597;SDS011;1813;52.016;8.714;2023-09-12T12:34:52;4.13;;;2.90;;
3597;SDS011;1813;52.016;8.714;2023-09-12T12:37:30;2.93;;;2.70;;
3597;SDS011;1813;52.016;8.714;2023-09-12T12:40:05;2.93;;;2.60;;
3597;SDS011;1813;52.016;8.714;2023-09-12T12:42:44;3.03;;;2.83;;
3597;SDS011;1813;52.016;8.714;2023-09-12T12:45:20;3.00;;;2.70;;
3597;SDS011;1813;52.016;8.714;2023-09-12T12:47:57;2.90;;;2.80;;
3597;SDS011;1813;52.016;8.714;2023-09-12T12:50:34;2.93;;;2.73;;
3597;SDS011;1813;52.016;8.714;2023-09-12T12:53:12;3.60;;;3.30;;
3597;SDS011;1813;52.016;8.714;2023-09-12T12:55:45;3.37;;;3.17;;
3597;SDS011;1813;52.016;8.714;2023-09-12T12:58:19;3.70;;;3.20;;
3597;SDS011;1813;52.016;8.714;2023-09-12T13:00:53;3.23;;;3.03;;
3597;SDS011;1813;52.016;8.714;2023-09-12T13:03:27;3.13;;;2.90;;
3597;SDS011;1813;52.016;8.714;2023-09-12T13:06:01;4.20;;;2.83;;
3597;SDS011;1813;52.016;8.714;2023-09-12T13:08:40;3.57;;;3.27;;
3597;SDS011;1813;52.016;8.714;2023-09-12T13:11:14;3.67;;;3.00;;
3597;SDS011;1813;52.016;8.714;2023-09-12T13:13:49;3.20;;;3.00;;
3597;SDS011;1813;52.016;8.714;2023-09-12T13:16:23;3.27;;;3.07;;
3597;SDS011;1813;52.016;8.714;2023-09-12T13:18:56;4.67;;;3.50;;
3597;SDS011;1813;52.016;8.714;2023-09-12T13:21:30;3.20;;;3.10;;
3597;SDS011;1813;52.016;8.714;2023-09-12T13:24:08;3.27;;;2.97;;
3597;SDS011;1813;52.016;8.714;2023-09-12T13:26:43;3.73;;;2.70;;
3597;SDS011;1813;52.016;8.714;2023-09-12T13:29:17;3.57;;;3.27;;
3597;SDS011;1813;52.016;8.714;2023-09-12T13:31:51;4.50;;;3.10;;
3597;SDS011;1813;52.016;8.714;2023-09-12T13:34:24;3.20;;;3.03;;
3597;SDS011;1813;52.016;8.714;2023-09-12T13:36:58;3.23;;;3.03;;
3597;SDS011;1813;52.016;8.714;2023-09-12T13:39:34;4.30;;;3.30;;
3597;SDS011;1813;52.016;8.714;2023-09-12T13:42:08;3.43;;;2.80;;
3597;SDS011;1813;52.016;8.714;2023-09-12T13:44:42;5.40;;;3.40;;
3597;SDS011;1813;52.016;8.714;2023-09-12T13:47:15;6.23;;;3.00;;
3597;SDS011;1813;52.016;8.714;2023-09-12T13:49:52;3.03;;;2.83;;
3597;SDS011;1813;52.016;8.714;2023-09-12T13:52:27;3.10;;;2.97;;
3597;SDS011;1813;52.016;8.714;2023-09-12T13:55:04;3.83;;;2.90;;
3597;SDS011;1813;52.016;8.714;2023-09-12T13:57:43;3.33;;;3.13;;
3597;SDS011;1813;52.016;8.714;2023-09-12T14:00:17;3.33;;;3.10;;
3597;SDS011;1813;52.016;8.714;2023-09-12T14:02:51;3.87;;;3.07;;
3597;SDS011;1813;52.016;8.714;2023-09-12T14:05:25;3.40;;;3.20;;
3597;SDS011;1813;52.016;8.714;2023-09-12T14:07:59;4.10;;;3.40;;
3597;SDS011;1813;52.016;8.714;2023-09-12T14:10:35;3.17;;;2.97;;
3597;SDS011;1813;52.016;8.714;2023-09-12T14:13:09;3.73;;;3.00;;
3597;SDS011;1813;52.016;8.714;2023-09-12T14:15:42;3.27;;;2.97;;
3597;SDS011;1813;52.016;8.714;2023-09-12T14:18:16;4.00;;;3.07;;
3597;SDS011;1813;52.016;8.714;2023-09-12T14:20:50;3.10;;;2.90;;
3597;SDS011;1813;52.016;8.714;2023-09-12T14:23:24;3.40;;;3.13;;
3597;SDS011;1813;52.016;8.714;2023-09-12T14:26:00;3.60;;;3.40;;
3597;SDS011;1813;52.016;8.714;2023-09-12T14:28:34;2.83;;;2.70;;
3597;SDS011;1813;52.016;8.714;2023-09-12T14:31:08;3.00;;;2.80;;
3597;SDS011;1813;52.016;8.714;2023-09-12T14:33:44;3.77;;;3.13;;
3597;SDS011;1813;52.016;8.714;2023-09-12T14:36:18;3.30;;;3.00;;
3597;SDS011;1813;52.016;8.714;2023-09-12T14:38:52;3.17;;;3.00;;
3597;SDS011;1813;52.016;8.714;2023-09-12T14:41:28;2.87;;;2.63;;
3597;SDS011;1813;52.016;8.714;2023-09-12T14:44:02;3.33;;;3.00;;
3597;SDS011;1813;52.016;8.714;2023-09-12T14:46:36;2.90;;;2.80;;
3597;SDS011;1813;52.016;8.714;2023-09-12T14:49:09;3.20;;;3.00;;
3597;SDS011;1813;52.016;8.714;2023-09-12T14:51:43;3.20;;;2.90;;
3597;SDS011;1813;52.016;8.714;2023-09-12T14:54:17;3.23;;;3.03;;
3597;SDS011;1813;52.016;8.714;2023-09-12T14:56:55;4.07;;;2.90;;
3597;SDS011;1813;52.016;8.714;2023-09-12T14:59:29;3.13;;;2.70;;
3597;SDS011;1813;52.016;8.714;2023-09-12T15:02:03;4.27;;;2.67;;
3597;SDS011;1813;52.016;8.714;2023-09-12T15:04:37;2.97;;;2.73;;
3597;SDS011;1813;52.016;8.714;2023-09-12T15:07:10;3.43;;;2.83;;
3597;SDS011;1813;52.016;8.714;2023-09-12T15:09:44;3.50;;;3.30;;
3597;SDS011;1813;52.016;8.714;2023-09-12T15:12:20;3.50;;;3.20;;
3597;SDS011;1813;52.016;8.714;2023-09-12T15:14:54;5.77;;;3.80;;
3597;SDS011;1813;52.016;8.714;2023-09-12T15:17:28;3.30;;;3.10;;
3597;SDS011;1813;52.016;8.714;2023-09-12T15:20:02;3.70;;;3.20;;
3597;SDS011;1813;52.016;8.714;2023-09-12T15:22:37;3.43;;;3.13;;
3597;SDS011;1813;52.016;8.714;2023-09-12T15:25:13;4.30;;;3.50;;
3597;SDS011;1813;52.016;8.714;2023-09-12T15:27:50;3.67;;;3.47;;
3597;SDS011;1813;52.016;8.714;2023-09-12T15:30:23;6.33;;;3.60;;
3597;SDS011;1813;52.016;8.714;2023-09-12T15:32:57;4.07;;;3.77;;
3597;SDS011;1813;52.016;8.714;2023-09-12T15:35:31;4.90;;;3.83;;
3597;SDS011;1813;52.016;8.714;2023-09-12T15:38:05;4.13;;;3.83;;
3597;SDS011;1813;52.016;8.714;2023-09-12T15:40:39;3.43;;;3.23;;
3597;SDS011;1813;52.016;8.714;2023-09-12T15:43:15;5.00;;;3.60;;
3597;SDS011;1813;52.016;8.714;2023-09-12T15:45:49;4.90;;;4.00;;
3597;SDS011;1813;52.016;8.714;2023-09-12T15:48:23;6.70;;;3.90;;
3597;SDS011;1813;52.016;8.714;2023-09-12T15:50:57;7.70;;;4.10;;
3597;SDS011;1813;52.016;8.714;2023-09-12T15:53:30;5.10;;;3.97;;
3597;SDS011;1813;52.016;8.714;2023-09-12T15:56:04;6.03;;;4.20;;
3597;SDS011;1813;52.016;8.714;2023-09-12T15:58:40;5.03;;;4.03;;
3597;SDS011;1813;52.016;8.714;2023-09-12T16:01:18;4.47;;;4.07;;
3597;SDS011;1813;52.016;8.714;2023-09-12T16:03:52;4.20;;;3.90;;